sensor_id;sensor_type;location;lat;lon;timestamp;pressure;altitude;pressure_sealevel;temperature
21336;BMP180;69435;52.670;13.544;2023-08-06T00:00:15;100202.00;;;22.90
21336;BMP180;69435;52.670;13.544;2023-08-06T00:03:01;100182.00;;;23.00
21336;BMP180;69435;52.670;13.544;2023-08-06T00:05:47;100184.00;;;22.90
21336;BMP180;69435;52.670;13.544;2023-08-06T00:08:33;100195.00;;;23.00
21336;BMP180;69435;52.670;13.544;2023-08-06T00:11:19;100151.00;;;23.00
21336;BMP180;69435;52.670;13.544;2023-08-06T00:14:05;100178.00;;;22.90
21336;BMP180;69435;52.670;13.544;2023-08-06T00:16:51;100197.00;;;23.00
21336;BMP180;69435;52.670;13.544;2023-08-06T00:19:37;100168.00;;;22.90
21336;BMP180;69435;52.670;13.544;2023-08-06T00:22:23;100192.00;;;22.80
21336;BMP180;69435;52.670;13.544;2023-08-06T00:25:09;100182.00;;;23.00
21336;BMP180;69435;52.670;13.544;2023-08-06T00:27:55;100180.00;;;22.90
21336;BMP180;69435;52.670;13.544;2023-08-06T00:30:42;100172.00;;;22.90
21336;BMP180;69435;52.670;13.544;2023-08-06T00:33:28;100158.00;;;23.00
21336;BMP180;69435;52.670;13.544;2023-08-06T00:36:14;100158.00;;;23.00
21336;BMP180;69435;52.670;13.544;2023-08-06T00:39:01;100161.00;;;23.00
21336;BMP180;69435;52.670;13.544;2023-08-06T00:41:47;100154.00;;;23.00
21336;BMP180;69435;52.670;13.544;2023-08-06T00:44:33;100152.00;;;23.00
21336;BMP180;69435;52.670;13.544;2023-08-06T00:47:19;100149.00;;;22.90
21336;BMP180;69435;52.670;13.544;2023-08-06T00:50:07;100155.00;;;23.00
21336;BMP180;69435;52.670;13.544;2023-08-06T00:52:54;100163.00;;;22.90
21336;BMP180;69435;52.670;13.544;2023-08-06T00:55:43;100141.00;;;23.00
21336;BMP180;69435;52.670;13.544;2023-08-06T00:58:30;100128.00;;;22.90
21336;BMP180;69435;52.670;13.544;2023-08-06T01:01:16;100149.00;;;22.90
21336;BMP180;69435;52.670;13.544;2023-08-06T01:04:02;100147.00;;;22.90
21336;BMP180;69435;52.670;13.544;2023-08-06T01:07:16;100157.00;;;22.90
21336;BMP180;69435;52.670;13.544;2023-08-06T01:10:24;100154.00;;;22.90
21336;BMP180;69435;52.670;13.544;2023-08-06T01:13:23;100123.00;;;22.80
21336;BMP180;69435;52.670;13.544;2023-08-06T01:16:18;100150.00;;;22.80
21336;BMP180;69435;52.670;13.544;2023-08-06T01:19:16;100151.00;;;22.80
21336;BMP180;69435;52.670;13.544;2023-08-06T01:22:03;100136.00;;;22.70
21336;BMP180;69435;52.670;13.544;2023-08-06T01:24:50;100148.00;;;22.70
21336;BMP180;69435;52.670;13.544;2023-08-06T01:27:49;100143.00;;;22.80
21336;BMP180;69435;52.670;13.544;2023-08-06T01:30:39;100140.00;;;22.70
21336;BMP180;69435;52.670;13.544;2023-08-06T01:33:28;100109.00;;;22.60
21336;BMP180;69435;52.670;13.544;2023-08-06T01:36:19;100132.00;;;22.60
21336;BMP180;69435;52.670;13.544;2023-08-06T01:39:06;100122.00;;;22.50
21336;BMP180;69435;52.670;13.544;2023-08-06T01:41:52;100107.00;;;22.50
21336;BMP180;69435;52.670;13.544;2023-08-06T01:44:38;100111.00;;;22.50
21336;BMP180;69435;52.670;13.544;2023-08-06T01:47:24;100122.00;;;22.50
21336;BMP180;69435;52.670;13.544;2023-08-06T01:50:10;100114.00;;;22.50
21336;BMP180;69435;52.670;13.544;2023-08-06T01:52:56;100103.00;;;22.50
21336;BMP180;69435;52.670;13.544;2023-08-06T01:55:42;100120.00;;;22.50
21336;BMP180;69435;52.670;13.544;2023-08-06T01:58:28;100101.00;;;22.50
21336;BMP180;69435;52.670;13.544;2023-08-06T02:01:14;100098.00;;;22.40
21336;BMP180;69435;52.670;13.544;2023-08-06T02:04:00;100108.00;;;22.40
21336;BMP180;69435;52.670;13.544;2023-08-06T02:06:46;100098.00;;;22.40
21336;BMP180;69435;52.670;13.544;2023-08-06T02:09:32;100082.00;;;22.40
21336;BMP180;69435;52.670;13.544;2023-08-06T02:12:18;100090.00;;;22.40
21336;BMP180;69435;52.670;13.544;2023-08-06T02:15:05;100076.00;;;22.30
21336;BMP180;69435;52.670;13.544;2023-08-06T02:17:51;100094.00;;;22.30
21336;BMP180;69435;52.670;13.544;2023-08-06T02:20:37;100082.00;;;22.30
21336;BMP180;69435;52.670;13.544;2023-08-06T02:23:24;100081.00;;;22.30
21336;BMP180;69435;52.670;13.544;2023-08-06T02:26:10;100081.00;;;22.30
21336;BMP180;69435;52.670;13.544;2023-08-06T02:28:56;100063.00;;;22.30
21336;BMP180;69435;52.670;13.544;2023-08-06T02:31:42;100061.00;;;22.30
21336;BMP180;69435;52.670;13.544;2023-08-06T02:34:28;100021.00;;;22.30
21336;BMP180;69435;52.670;13.544;2023-08-06T02:37:14;100059.00;;;22.20
21336;BMP180;69435;52.670;13.544;2023-08-06T02:40:00;100023.00;;;22.20
21336;BMP180;69435;52.670;13.544;2023-08-06T02:42:45;100051.00;;;22.20
21336;BMP180;69435;52.670;13.544;2023-08-06T02:45:31;100057.00;;;22.20
21336;BMP180;69435;52.670;13.544;2023-08-06T02:48:17;100061.00;;;22.20
21336;BMP180;69435;52.670;13.544;2023-08-06T02:51:04;100050.00;;;22.20
21336;BMP180;69435;52.670;13.544;2023-08-06T02:53:50;100056.00;;;22.20
21336;BMP180;69435;52.670;13.544;2023-08-06T02:56:36;100045.00;;;22.00
21336;BMP180;69435;52.670;13.544;2023-08-06T02:59:22;100049.00;;;22.10
21336;BMP180;69435;52.670;13.544;2023-08-06T03:02:08;100045.00;;;22.10
21336;BMP180;69435;52.670;13.544;2023-08-06T03:04:54;100041.00;;;22.10
21336;BMP180;69435;52.670;13.544;2023-08-06T03:07:40;100046.00;;;22.10
21336;BMP180;69435;52.670;13.544;2023-08-06T03:10:27;100045.00;;;22.10
21336;BMP180;69435;52.670;13.544;2023-08-06T03:13:13;100050.00;;;22.10
21336;BMP180;69435;52.670;13.544;2023-08-06T03:15:59;100035.00;;;22.00
21336;BMP180;69435;52.670;13.544;2023-08-06T03:18:46;100053.00;;;22.00
21336;BMP180;69435;52.670;13.544;2023-08-06T03:21:33;100027.00;;;22.00
21336;BMP180;69435;52.670;13.544;2023-08-06T03:24:20;100031.00;;;22.00
21336;BMP180;69435;52.670;13.544;2023-08-06T03:27:09;100033.00;;;22.00
21336;BMP180;69435;52.670;13.544;2023-08-06T03:29:55;100026.00;;;22.00
21336;BMP180;69435;52.670;13.544;2023-08-06T03:32:41;100022.00;;;22.00
21336;BMP180;69435;52.670;13.544;2023-08-06T03:35:27;100011.00;;;22.00
21336;BMP180;69435;52.670;13.544;2023-08-06T03:38:13;100004.00;;;22.00
21336;BMP180;69435;52.670;13.544;2023-08-06T03:40:59;99998.00;;;22.00
21336;BMP180;69435;52.670;13.544;2023-08-06T03:43:45;99992.00;;;22.00
21336;BMP180;69435;52.670;13.544;2023-08-06T03:46:31;99995.00;;;22.00
21336;BMP180;69435;52.670;13.544;2023-08-06T03:49:20;99971.00;;;22.00
21336;BMP180;69435;52.670;13.544;2023-08-06T03:52:07;99977.00;;;22.00
21336;BMP180;69435;52.670;13.544;2023-08-06T03:54:53;99977.00;;;22.00
21336;BMP180;69435;52.670;13.544;2023-08-06T03:57:39;99973.00;;;22.00
21336;BMP180;69435;52.670;13.544;2023-08-06T04:00:26;99990.00;;;21.90
21336;BMP180;69435;52.670;13.544;2023-08-06T04:03:12;99983.00;;;21.90
21336;BMP180;69435;52.670;13.544;2023-08-06T04:05:58;99958.00;;;22.00
21336;BMP180;69435;52.670;13.544;2023-08-06T04:08:45;99961.00;;;21.90
21336;BMP180;69435;52.670;13.544;2023-08-06T04:11:31;99961.00;;;21.90
21336;BMP180;69435;52.670;13.544;2023-08-06T04:14:17;99968.00;;;22.00
21336;BMP180;69435;52.670;13.544;2023-08-06T04:17:03;99955.00;;;22.00
21336;BMP180;69435;52.670;13.544;2023-08-06T04:19:52;99958.00;;;22.00
21336;BMP180;69435;52.670;13.544;2023-08-06T04:22:38;99919.00;;;22.00
21336;BMP180;69435;52.670;13.544;2023-08-06T04:25:25;99952.00;;;22.00
21336;BMP180;69435;52.670;13.544;2023-08-06T04:28:11;99956.00;;;22.00
21336;BMP180;69435;52.670;13.544;2023-08-06T04:30:57;99930.00;;;22.10
21336;BMP180;69435;52.670;13.544;2023-08-06T04:33:44;99936.00;;;22.10
21336;BMP180;69435;52.670;13.544;2023-08-06T04:36:30;99941.00;;;22.10
21336;BMP180;69435;52.670;13.544;2023-08-06T04:39:16;99917.00;;;22.10
21336;BMP180;69435;52.670;13.544;2023-08-06T04:42:02;99920.00;;;22.10
21336;BMP180;69435;52.670;13.544;2023-08-06T04:44:49;99932.00;;;22.10
21336;BMP180;69435;52.670;13.544;2023-08-06T04:47:35;99919.00;;;22.10
21336;BMP180;69435;52.670;13.544;2023-08-06T04:50:21;99917.00;;;22.10
21336;BMP180;69435;52.670;13.544;2023-08-06T04:53:07;99915.00;;;22.10
21336;BMP180;69435;52.670;13.544;2023-08-06T04:55:52;99918.00;;;22.10
21336;BMP180;69435;52.670;13.544;2023-08-06T04:58:39;99915.00;;;22.10
21336;BMP180;69435;52.670;13.544;2023-08-06T05:01:25;99892.00;;;22.20
21336;BMP180;69435;52.670;13.544;2023-08-06T05:04:11;99905.00;;;22.20
21336;BMP180;69435;52.670;13.544;2023-08-06T05:06:57;99906.00;;;22.10
21336;BMP180;69435;52.670;13.544;2023-08-06T05:09:43;99916.00;;;22.20
21336;BMP180;69435;52.670;13.544;2023-08-06T05:12:29;99923.00;;;22.20
21336;BMP180;69435;52.670;13.544;2023-08-06T05:15:17;99903.00;;;22.30
21336;BMP180;69435;52.670;13.544;2023-08-06T05:18:03;99890.00;;;22.30
21336;BMP180;69435;52.670;13.544;2023-08-06T05:20:49;99901.00;;;22.30
21336;BMP180;69435;52.670;13.544;2023-08-06T05:23:35;99912.00;;;22.30
21336;BMP180;69435;52.670;13.544;2023-08-06T05:26:21;99904.00;;;22.30
21336;BMP180;69435;52.670;13.544;2023-08-06T05:29:08;99895.00;;;22.40
21336;BMP180;69435;52.670;13.544;2023-08-06T05:31:54;99894.00;;;22.40
21336;BMP180;69435;52.670;13.544;2023-08-06T05:34:40;99878.00;;;22.40
21336;BMP180;69435;52.670;13.544;2023-08-06T05:37:27;99874.00;;;22.40
21336;BMP180;69435;52.670;13.544;2023-08-06T05:40:13;99877.00;;;22.40
21336;BMP180;69435;52.670;13.544;2023-08-06T05:42:59;99855.00;;;22.50
21336;BMP180;69435;52.670;13.544;2023-08-06T05:45:46;99869.00;;;22.50
21336;BMP180;69435;52.670;13.544;2023-08-06T05:48:32;99870.00;;;22.40
21336;BMP180;69435;52.670;13.544;2023-08-06T05:51:18;99885.00;;;22.70
21336;BMP180;69435;52.670;13.544;2023-08-06T05:54:05;99853.00;;;22.60
21336;BMP180;69435;52.670;13.544;2023-08-06T05:56:51;99886.00;;;22.80
21336;BMP180;69435;52.670;13.544;2023-08-06T05:59:37;99885.00;;;22.80
21336;BMP180;69435;52.670;13.544;2023-08-06T06:02:23;99878.00;;;22.90
21336;BMP180;69435;52.670;13.544;2023-08-06T06:05:09;99867.00;;;22.90
21336;BMP180;69435;52.670;13.544;2023-08-06T06:07:55;99869.00;;;22.90
21336;BMP180;69435;52.670;13.544;2023-08-06T06:10:41;99866.00;;;23.00
21336;BMP180;69435;52.670;13.544;2023-08-06T06:13:28;99867.00;;;23.00
21336;BMP180;69435;52.670;13.544;2023-08-06T06:16:14;99858.00;;;23.00
21336;BMP180;69435;52.670;13.544;2023-08-06T06:19:00;99844.00;;;23.00
21336;BMP180;69435;52.670;13.544;2023-08-06T06:21:46;99849.00;;;23.10
21336;BMP180;69435;52.670;13.544;2023-08-06T06:24:32;99837.00;;;23.10
21336;BMP180;69435;52.670;13.544;2023-08-06T06:27:18;99835.00;;;23.10
21336;BMP180;69435;52.670;13.544;2023-08-06T06:30:04;99852.00;;;23.10
21336;BMP180;69435;52.670;13.544;2023-08-06T06:32:51;99844.00;;;23.10
21336;BMP180;69435;52.670;13.544;2023-08-06T06:35:37;99840.00;;;23.10
21336;BMP180;69435;52.670;13.544;2023-08-06T06:38:23;99836.00;;;23.20
21336;BMP180;69435;52.670;13.544;2023-08-06T06:41:09;99846.00;;;23.20
21336;BMP180;69435;52.670;13.544;2023-08-06T06:43:55;99837.00;;;23.20
21336;BMP180;69435;52.670;13.544;2023-08-06T06:46:41;99848.00;;;23.20
21336;BMP180;69435;52.670;13.544;2023-08-06T06:49:27;99843.00;;;23.20
21336;BMP180;69435;52.670;13.544;2023-08-06T06:52:13;99834.00;;;23.30
21336;BMP180;69435;52.670;13.544;2023-08-06T06:54:59;99840.00;;;23.30
21336;BMP180;69435;52.670;13.544;2023-08-06T06:57:45;99845.00;;;23.20
21336;BMP180;69435;52.670;13.544;2023-08-06T07:00:31;99839.00;;;23.20
21336;BMP180;69435;52.670;13.544;2023-08-06T07:03:19;99844.00;;;23.30
21336;BMP180;69435;52.670;13.544;2023-08-06T07:06:05;99831.00;;;23.30
21336;BMP180;69435;52.670;13.544;2023-08-06T07:08:51;99842.00;;;23.40
21336;BMP180;69435;52.670;13.544;2023-08-06T07:11:37;99843.00;;;23.40
21336;BMP180;69435;52.670;13.544;2023-08-06T07:14:25;99839.00;;;23.50
21336;BMP180;69435;52.670;13.544;2023-08-06T07:17:11;99832.00;;;23.50
21336;BMP180;69435;52.670;13.544;2023-08-06T07:19:57;99831.00;;;23.50
21336;BMP180;69435;52.670;13.544;2023-08-06T07:22:44;99801.00;;;23.60
21336;BMP180;69435;52.670;13.544;2023-08-06T07:25:30;99843.00;;;23.60
21336;BMP180;69435;52.670;13.544;2023-08-06T07:28:17;99833.00;;;23.40
21336;BMP180;69435;52.670;13.544;2023-08-06T07:31:03;99830.00;;;23.60
21336;BMP180;69435;52.670;13.544;2023-08-06T07:33:49;99833.00;;;23.60
21336;BMP180;69435;52.670;13.544;2023-08-06T07:36:35;99820.00;;;23.70
21336;BMP180;69435;52.670;13.544;2023-08-06T07:39:22;99832.00;;;23.70
21336;BMP180;69435;52.670;13.544;2023-08-06T07:42:10;99834.00;;;23.80
21336;BMP180;69435;52.670;13.544;2023-08-06T07:44:58;99838.00;;;23.80
21336;BMP180;69435;52.670;13.544;2023-08-06T07:47:44;99827.00;;;23.80
21336;BMP180;69435;52.670;13.544;2023-08-06T07:50:31;99843.00;;;23.80
21336;BMP180;69435;52.670;13.544;2023-08-06T07:53:17;99831.00;;;23.80
21336;BMP180;69435;52.670;13.544;2023-08-06T07:56:03;99842.00;;;23.90
21336;BMP180;69435;52.670;13.544;2023-08-06T07:58:49;99842.00;;;23.90
21336;BMP180;69435;52.670;13.544;2023-08-06T08:01:35;99837.00;;;23.90
21336;BMP180;69435;52.670;13.544;2023-08-06T08:04:21;99837.00;;;23.80
21336;BMP180;69435;52.670;13.544;2023-08-06T08:07:10;99831.00;;;23.90
21336;BMP180;69435;52.670;13.544;2023-08-06T08:09:56;99824.00;;;23.90
21336;BMP180;69435;52.670;13.544;2023-08-06T08:12:42;99827.00;;;23.90
21336;BMP180;69435;52.670;13.544;2023-08-06T08:15:30;99826.00;;;23.90
21336;BMP180;69435;52.670;13.544;2023-08-06T08:18:16;99821.00;;;23.90
21336;BMP180;69435;52.670;13.544;2023-08-06T08:21:03;99819.00;;;23.90
21336;BMP180;69435;52.670;13.544;2023-08-06T08:23:50;99812.00;;;23.90
21336;BMP180;69435;52.670;13.544;2023-08-06T08:26:36;99820.00;;;24.00
21336;BMP180;69435;52.670;13.544;2023-08-06T08:29:22;99810.00;;;24.00
21336;BMP180;69435;52.670;13.544;2023-08-06T08:32:08;99791.00;;;24.00
21336;BMP180;69435;52.670;13.544;2023-08-06T08:34:54;99786.00;;;24.00
21336;BMP180;69435;52.670;13.544;2023-08-06T08:37:42;99803.00;;;24.00
21336;BMP180;69435;52.670;13.544;2023-08-06T08:40:33;99786.00;;;24.00
21336;BMP180;69435;52.670;13.544;2023-08-06T08:43:24;99800.00;;;24.00
21336;BMP180;69435;52.670;13.544;2023-08-06T08:46:12;99787.00;;;23.90
21336;BMP180;69435;52.670;13.544;2023-08-06T08:49:00;99791.00;;;23.90
21336;BMP180;69435;52.670;13.544;2023-08-06T08:51:48;99782.00;;;23.90
21336;BMP180;69435;52.670;13.544;2023-08-06T08:54:37;99775.00;;;23.90
21336;BMP180;69435;52.670;13.544;2023-08-06T08:57:24;99772.00;;;23.90
21336;BMP180;69435;52.670;13.544;2023-08-06T09:00:10;99753.00;;;23.90
21336;BMP180;69435;52.670;13.544;2023-08-06T09:03:00;99767.00;;;24.00
21336;BMP180;69435;52.670;13.544;2023-08-06T09:05:52;99763.00;;;23.90
21336;BMP180;69435;52.670;13.544;2023-08-06T09:08:51;99747.00;;;23.90
21336;BMP180;69435;52.670;13.544;2023-08-06T09:11:43;99744.00;;;23.90
21336;BMP180;69435;52.670;13.544;2023-08-06T09:14:30;99753.00;;;23.90
21336;BMP180;69435;52.670;13.544;2023-08-06T09:17:16;99749.00;;;24.00
21336;BMP180;69435;52.670;13.544;2023-08-06T09:20:13;99737.00;;;24.10
21336;BMP180;69435;52.670;13.544;2023-08-06T09:23:08;99743.00;;;24.10
21336;BMP180;69435;52.670;13.544;2023-08-06T09:25:54;99738.00;;;24.10
21336;BMP180;69435;52.670;13.544;2023-08-06T09:28:40;99717.00;;;24.10
21336;BMP180;69435;52.670;13.544;2023-08-06T09:31:44;99739.00;;;24.20
21336;BMP180;69435;52.670;13.544;2023-08-06T09:34:31;99731.00;;;24.10
21336;BMP180;69435;52.670;13.544;2023-08-06T09:37:17;99732.00;;;24.00
21336;BMP180;69435;52.670;13.544;2023-08-06T09:40:03;99719.00;;;24.10
21336;BMP180;69435;52.670;13.544;2023-08-06T09:42:49;99725.00;;;24.10
21336;BMP180;69435;52.670;13.544;2023-08-06T09:45:38;99730.00;;;23.90
21336;BMP180;69435;52.670;13.544;2023-08-06T09:48:24;99728.00;;;24.10
21336;BMP180;69435;52.670;13.544;2023-08-06T09:51:13;99729.00;;;24.10
21336;BMP180;69435;52.670;13.544;2023-08-06T09:54:01;99725.00;;;24.10
21336;BMP180;69435;52.670;13.544;2023-08-06T09:56:48;99715.00;;;24.10
21336;BMP180;69435;52.670;13.544;2023-08-06T09:59:36;99701.00;;;24.10
21336;BMP180;69435;52.670;13.544;2023-08-06T10:02:26;99711.00;;;24.20
21336;BMP180;69435;52.670;13.544;2023-08-06T10:05:12;99705.00;;;24.20
21336;BMP180;69435;52.670;13.544;2023-08-06T10:08:00;99712.00;;;24.20
21336;BMP180;69435;52.670;13.544;2023-08-06T10:10:47;99717.00;;;24.20
21336;BMP180;69435;52.670;13.544;2023-08-06T10:13:34;99702.00;;;24.20
21336;BMP180;69435;52.670;13.544;2023-08-06T10:16:22;99696.00;;;24.20
21336;BMP180;69435;52.670;13.544;2023-08-06T10:19:13;99708.00;;;24.30
21336;BMP180;69435;52.670;13.544;2023-08-06T10:22:14;99700.00;;;24.30
21336;BMP180;69435;52.670;13.544;2023-08-06T10:25:02;99692.00;;;24.20
21336;BMP180;69435;52.670;13.544;2023-08-06T10:30:57;99683.00;;;24.20
21336;BMP180;69435;52.670;13.544;2023-08-06T10:33:47;99678.00;;;24.20
21336;BMP180;69435;52.670;13.544;2023-08-06T10:36:33;99677.00;;;24.10
21336;BMP180;69435;52.670;13.544;2023-08-06T10:39:19;99684.00;;;24.10
21336;BMP180;69435;52.670;13.544;2023-08-06T10:42:19;99679.00;;;24.30
21336;BMP180;69435;52.670;13.544;2023-08-06T10:45:17;99682.00;;;24.30
21336;BMP180;69435;52.670;13.544;2023-08-06T10:48:04;99674.00;;;24.20
21336;BMP180;69435;52.670;13.544;2023-08-06T10:50:50;99673.00;;;24.20
21336;BMP180;69435;52.670;13.544;2023-08-06T10:53:37;99678.00;;;24.20
21336;BMP180;69435;52.670;13.544;2023-08-06T10:56:25;99676.00;;;24.30
21336;BMP180;69435;52.670;13.544;2023-08-06T10:59:15;99669.00;;;24.30
21336;BMP180;69435;52.670;13.544;2023-08-06T11:02:01;99647.00;;;24.10
21336;BMP180;69435;52.670;13.544;2023-08-06T11:04:48;99659.00;;;24.20
21336;BMP180;69435;52.670;13.544;2023-08-06T11:07:35;99631.00;;;24.10
21336;BMP180;69435;52.670;13.544;2023-08-06T11:10:22;99655.00;;;24.10
21336;BMP180;69435;52.670;13.544;2023-08-06T11:13:08;99653.00;;;24.00
21336;BMP180;69435;52.670;13.544;2023-08-06T11:15:55;99656.00;;;24.00
21336;BMP180;69435;52.670;13.544;2023-08-06T11:18:42;99647.00;;;24.00
21336;BMP180;69435;52.670;13.544;2023-08-06T11:21:28;99647.00;;;24.00
21336;BMP180;69435;52.670;13.544;2023-08-06T11:24:15;99648.00;;;24.00
21336;BMP180;69435;52.670;13.544;2023-08-06T11:27:01;99626.00;;;24.00
21336;BMP180;69435;52.670;13.544;2023-08-06T11:29:47;99640.00;;;24.00
21336;BMP180;69435;52.670;13.544;2023-08-06T11:32:33;99601.00;;;24.10
21336;BMP180;69435;52.670;13.544;2023-08-06T11:35:21;99634.00;;;24.10
21336;BMP180;69435;52.670;13.544;2023-08-06T11:38:07;99629.00;;;24.20
21336;BMP180;69435;52.670;13.544;2023-08-06T11:40:53;99633.00;;;24.30
21336;BMP180;69435;52.670;13.544;2023-08-06T11:43:40;99613.00;;;24.40
21336;BMP180;69435;52.670;13.544;2023-08-06T11:46:26;99625.00;;;24.40
21336;BMP180;69435;52.670;13.544;2023-08-06T11:49:12;99594.00;;;24.40
21336;BMP180;69435;52.670;13.544;2023-08-06T11:51:58;99612.00;;;24.30
21336;BMP180;69435;52.670;13.544;2023-08-06T11:54:44;99607.00;;;24.30
21336;BMP180;69435;52.670;13.544;2023-08-06T11:57:30;99620.00;;;24.20
21336;BMP180;69435;52.670;13.544;2023-08-06T12:00:24;99604.00;;;24.30
21336;BMP180;69435;52.670;13.544;2023-08-06T12:03:10;99612.00;;;24.30
21336;BMP180;69435;52.670;13.544;2023-08-06T12:05:56;99589.00;;;24.30
21336;BMP180;69435;52.670;13.544;2023-08-06T12:08:42;99603.00;;;24.30
21336;BMP180;69435;52.670;13.544;2023-08-06T12:11:28;99569.00;;;24.30
21336;BMP180;69435;52.670;13.544;2023-08-06T12:14:14;99585.00;;;24.30
21336;BMP180;69435;52.670;13.544;2023-08-06T12:17:00;99581.00;;;24.20
21336;BMP180;69435;52.670;13.544;2023-08-06T12:19:49;99598.00;;;24.20
21336;BMP180;69435;52.670;13.544;2023-08-06T12:22:37;99590.00;;;24.20
21336;BMP180;69435;52.670;13.544;2023-08-06T12:25:25;99578.00;;;24.20
21336;BMP180;69435;52.670;13.544;2023-08-06T12:28:11;99579.00;;;24.20
21336;BMP180;69435;52.670;13.544;2023-08-06T12:30:58;99593.00;;;24.20
21336;BMP180;69435;52.670;13.544;2023-08-06T12:33:44;99588.00;;;24.20
21336;BMP180;69435;52.670;13.544;2023-08-06T12:36:30;99576.00;;;24.30
21336;BMP180;69435;52.670;13.544;2023-08-06T12:39:16;99582.00;;;24.30
21336;BMP180;69435;52.670;13.544;2023-08-06T12:42:04;99593.00;;;24.20
21336;BMP180;69435;52.670;13.544;2023-08-06T12:44:51;99590.00;;;24.20
21336;BMP180;69435;52.670;13.544;2023-08-06T12:47:37;99556.00;;;24.20
21336;BMP180;69435;52.670;13.544;2023-08-06T12:50:23;99560.00;;;24.10
21336;BMP180;69435;52.670;13.544;2023-08-06T12:53:09;99580.00;;;24.10
21336;BMP180;69435;52.670;13.544;2023-08-06T12:55:55;99577.00;;;24.10
21336;BMP180;69435;52.670;13.544;2023-08-06T12:58:41;99585.00;;;24.20
21336;BMP180;69435;52.670;13.544;2023-08-06T13:01:28;99591.00;;;24.20
21336;BMP180;69435;52.670;13.544;2023-08-06T13:04:14;99564.00;;;24.20
21336;BMP180;69435;52.670;13.544;2023-08-06T13:07:00;99579.00;;;24.20
21336;BMP180;69435;52.670;13.544;2023-08-06T13:09:46;99576.00;;;24.20
21336;BMP180;69435;52.670;13.544;2023-08-06T13:12:32;99584.00;;;24.20
21336;BMP180;69435;52.670;13.544;2023-08-06T13:15:18;99545.00;;;24.10
21336;BMP180;69435;52.670;13.544;2023-08-06T13:18:06;99580.00;;;24.00
21336;BMP180;69435;52.670;13.544;2023-08-06T13:20:54;99591.00;;;24.00
21336;BMP180;69435;52.670;13.544;2023-08-06T13:23:40;99590.00;;;23.90
21336;BMP180;69435;52.670;13.544;2023-08-06T13:26:26;99578.00;;;23.90
21336;BMP180;69435;52.670;13.544;2023-08-06T13:29:12;99588.00;;;23.80
21336;BMP180;69435;52.670;13.544;2023-08-06T13:31:58;99568.00;;;23.80
21336;BMP180;69435;52.670;13.544;2023-08-06T13:34:44;99569.00;;;23.80
21336;BMP180;69435;52.670;13.544;2023-08-06T13:37:30;99579.00;;;23.70
21336;BMP180;69435;52.670;13.544;2023-08-06T13:40:16;99571.00;;;23.70
21336;BMP180;69435;52.670;13.544;2023-08-06T13:43:02;99566.00;;;23.70
21336;BMP180;69435;52.670;13.544;2023-08-06T13:45:48;99575.00;;;23.70
21336;BMP180;69435;52.670;13.544;2023-08-06T13:48:34;99571.00;;;23.70
21336;BMP180;69435;52.670;13.544;2023-08-06T13:51:20;99570.00;;;23.60
21336;BMP180;69435;52.670;13.544;2023-08-06T13:54:06;99573.00;;;23.60
21336;BMP180;69435;52.670;13.544;2023-08-06T13:56:52;99572.00;;;23.60
21336;BMP180;69435;52.670;13.544;2023-08-06T13:59:39;99574.00;;;23.50
21336;BMP180;69435;52.670;13.544;2023-08-06T14:02:25;99572.00;;;23.40
21336;BMP180;69435;52.670;13.544;2023-08-06T14:05:11;99574.00;;;23.40
21336;BMP180;69435;52.670;13.544;2023-08-06T14:07:57;99567.00;;;23.40
21336;BMP180;69435;52.670;13.544;2023-08-06T14:10:43;99581.00;;;23.30
21336;BMP180;69435;52.670;13.544;2023-08-06T14:13:29;99569.00;;;23.30
21336;BMP180;69435;52.670;13.544;2023-08-06T14:16:15;99583.00;;;23.20
21336;BMP180;69435;52.670;13.544;2023-08-06T14:19:03;99570.00;;;23.20
21336;BMP180;69435;52.670;13.544;2023-08-06T14:21:50;99577.00;;;23.20
21336;BMP180;69435;52.670;13.544;2023-08-06T14:24:36;99570.00;;;23.10
21336;BMP180;69435;52.670;13.544;2023-08-06T14:27:22;99579.00;;;23.10
21336;BMP180;69435;52.670;13.544;2023-08-06T14:30:09;99575.00;;;23.10
21336;BMP180;69435;52.670;13.544;2023-08-06T14:32:55;99579.00;;;23.10
21336;BMP180;69435;52.670;13.544;2023-08-06T14:35:41;99582.00;;;23.10
21336;BMP180;69435;52.670;13.544;2023-08-06T14:38:27;99586.00;;;23.10
21336;BMP180;69435;52.670;13.544;2023-08-06T14:41:13;99586.00;;;23.10
21336;BMP180;69435;52.670;13.544;2023-08-06T14:43:59;99587.00;;;23.00
21336;BMP180;69435;52.670;13.544;2023-08-06T14:46:45;99588.00;;;23.00
21336;BMP180;69435;52.670;13.544;2023-08-06T14:49:31;99579.00;;;23.00
21336;BMP180;69435;52.670;13.544;2023-08-06T14:52:17;99579.00;;;23.00
21336;BMP180;69435;52.670;13.544;2023-08-06T14:55:03;99574.00;;;23.00
21336;BMP180;69435;52.670;13.544;2023-08-06T14:57:50;99572.00;;;23.10
21336;BMP180;69435;52.670;13.544;2023-08-06T15:00:36;99575.00;;;23.10
21336;BMP180;69435;52.670;13.544;2023-08-06T15:03:22;99586.00;;;23.10
21336;BMP180;69435;52.670;13.544;2023-08-06T15:06:08;99577.00;;;23.20
21336;BMP180;69435;52.670;13.544;2023-08-06T15:08:54;99571.00;;;23.20
21336;BMP180;69435;52.670;13.544;2023-08-06T15:11:43;99587.00;;;23.20
21336;BMP180;69435;52.670;13.544;2023-08-06T15:14:29;99585.00;;;23.30
21336;BMP180;69435;52.670;13.544;2023-08-06T15:17:15;99573.00;;;23.30
21336;BMP180;69435;52.670;13.544;2023-08-06T15:20:03;99586.00;;;23.30
21336;BMP180;69435;52.670;13.544;2023-08-06T15:22:50;99587.00;;;23.30
21336;BMP180;69435;52.670;13.544;2023-08-06T15:25:36;99602.00;;;23.20
21336;BMP180;69435;52.670;13.544;2023-08-06T15:28:23;99586.00;;;23.20
21336;BMP180;69435;52.670;13.544;2023-08-06T15:31:09;99595.00;;;23.20
21336;BMP180;69435;52.670;13.544;2023-08-06T15:33:56;99593.00;;;23.10
21336;BMP180;69435;52.670;13.544;2023-08-06T15:36:41;99595.00;;;23.10
21336;BMP180;69435;52.670;13.544;2023-08-06T15:39:27;99569.00;;;23.10
21336;BMP180;69435;52.670;13.544;2023-08-06T15:42:14;99545.00;;;23.10
21336;BMP180;69435;52.670;13.544;2023-08-06T15:45:01;99583.00;;;23.00
21336;BMP180;69435;52.670;13.544;2023-08-06T15:47:50;99579.00;;;23.00